Time;durP1;ratioP1;P1;durP2;ratioP2;P2;SDS_P1;SDS_P2;PMS_P1;PMS_P2;Temp;Humidity;BMP_temperature;BMP_pressure;BME280_temperature;BME280_humidity;BME280_pressure;Samples;Min_cycle;Max_cycle;Signal;HPM_P1;HPM_P2
2022/11/06 00:00:05;;;;;;;9.73;4.00;;;;;;;4.56;100.00;99652.91;5080716;28;20055;-89
2022/11/06 00:02:32;;;;;;;9.73;3.72;;;;;;;4.48;100.00;99638.47;5083445;28;20650;-89
2022/11/06 00:06:46;;;;;;;9.23;3.95;;;;;;;4.41;100.00;99631.78;5077812;28;20048;-89
2022/11/06 00:07:47;;;;;;;9.52;4.18;;;;;;;4.45;100.00;99631.66;5077149;28;20461;-89
2022/11/06 00:10:15;;;;;;;12.38;4.30;;;;;;;4.49;100.00;99647.97;5082943;28;20056;-89
2022/11/06 00:12:42;;;;;;;11.35;4.78;;;;;;;4.28;100.00;99623.53;5079884;28;20063;-89
2022/11/06 00:15:10;;;;;;;14.75;5.82;;;;;;;4.12;100.00;99623.97;5084300;28;20098;-88
2022/11/06 00:17:36;;;;;;;11.60;4.90;;;;;;;4.25;100.00;99652.13;5079880;28;20056;-88
2022/11/06 00:20:05;;;;;;;13.30;4.78;;;;;;;4.26;100.00;99633.09;5080407;28;20097;-89
2022/11/06 00:22:33;;;;;;;12.98;4.70;;;;;;;4.20;100.00;99623.78;5081567;28;20480;-88
2022/11/06 00:25:00;;;;;;;10.85;4.60;;;;;;;4.29;100.00;99636.44;5082189;28;20043;-89
2022/11/06 00:27:27;;;;;;;11.85;5.10;;;;;;;4.21;100.00;99627.19;5074741;28;20048;-89
2022/11/06 00:29:54;;;;;;;10.15;4.43;;;;;;;4.18;100.00;99613.44;5084985;28;20036;-88
2022/11/06 00:32:21;;;;;;;14.20;7.25;;;;;;;3.90;100.00;99602.19;5079923;28;20071;-89
2022/11/06 00:34:48;;;;;;;13.02;6.35;;;;;;;3.83;100.00;99618.78;5077810;28;20718;-88
2022/11/06 00:37:15;;;;;;;12.45;6.00;;;;;;;4.02;100.00;99640.69;5077425;28;20067;-89
2022/11/06 00:39:42;;;;;;;14.38;6.57;;;;;;;3.96;100.00;99608.03;5077009;28;20052;-89
2022/11/06 00:42:08;;;;;;;12.55;5.43;;;;;;;4.08;100.00;99611.16;5078576;28;20048;-89
2022/11/06 00:44:35;;;;;;;13.77;5.43;;;;;;;4.13;100.00;99627.44;5085237;28;20064;-89
2022/11/06 00:47:01;;;;;;;18.60;7.07;;;;;;;3.88;100.00;99597.06;5083660;28;20093;-88
2022/11/06 00:49:28;;;;;;;12.23;5.78;;;;;;;3.90;100.00;99615.97;5086475;28;20044;-89
2022/11/06 00:51:55;;;;;;;10.95;4.65;;;;;;;3.99;100.00;99631.25;5079518;28;20052;-89
2022/11/06 00:54:22;;;;;;;12.73;5.25;;;;;;;3.68;100.00;99579.47;5080573;28;20541;-89
2022/11/06 00:56:49;;;;;;;11.25;4.53;;;;;;;3.73;100.00;99613.84;5074326;28;20056;-88
2022/11/06 00:59:15;;;;;;;11.18;4.10;;;;;;;3.90;100.00;99622.91;5078084;28;20049;-88
2022/11/06 01:01:44;;;;;;;12.15;4.68;;;;;;;3.68;100.00;99597.59;5084694;28;20052;-88
2022/11/06 01:04:15;;;;;;;10.73;4.47;;;;;;;3.75;100.00;99606.03;5080191;28;20048;-88
2022/11/06 01:06:45;;;;;;;13.20;4.70;;;;;;;3.71;100.00;99583.72;5079123;28;20048;-88
2022/11/06 01:09:15;;;;;;;12.90;4.70;;;;;;;3.96;100.00;99602.84;5076335;28;20470;-89
2022/11/06 01:11:45;;;;;;;10.57;4.28;;;;;;;3.75;100.00;99564.63;5090809;28;20059;-88
2022/11/06 01:14:31;;;;;;;10.70;3.83;;;;;;;4.02;100.00;99601.84;5084633;28;20139;-88
2022/11/06 01:16:58;;;;;;;11.13;4.38;;;;;;;4.06;100.00;99605.19;5081334;28;20045;-89
2022/11/06 01:19:25;;;;;;;9.80;3.95;;;;;;;3.95;100.00;99588.22;5078312;28;20579;-88
2022/11/06 01:21:53;;;;;;;9.07;3.25;;;;;;;4.06;100.00;99603.44;5088692;28;20450;-89
2022/11/06 01:24:23;;;;;;;9.85;3.28;;;;;;;3.99;100.00;99589.81;5076912;28;20056;-89
2022/11/06 01:26:50;;;;;;;12.15;3.35;;;;;;;4.19;100.00;99606.50;5084418;28;20048;-89
2022/11/06 01:29:37;;;;;;;12.55;3.85;;;;;;;4.12;100.00;99592.88;5088579;28;20519;-88
2022/11/06 01:32:04;;;;;;;11.13;3.53;;;;;;;3.88;100.00;99563.38;5082686;28;20048;-89
2022/11/06 01:34:31;;;;;;;10.88;3.45;;;;;;;4.20;100.00;99587.50;5083038;28;20056;-88
2022/11/06 01:36:58;;;;;;;7.40;2.72;;;;;;;4.16;100.00;99547.00;5081714;28;20051;-88
2022/11/06 01:39:24;;;;;;;8.82;3.05;;;;;;;4.45;100.00;99597.13;5079060;28;20048;-88
2022/11/06 01:41:52;;;;;;;8.40;3.17;;;;;;;4.38;100.00;99575.72;5074562;28;20032;-89
2022/11/06 01:44:34;;;;;;;8.50;2.78;;;;;;;4.45;100.00;99582.41;5077914;28;20049;-89
2022/11/06 01:47:03;;;;;;;7.57;2.92;;;;;;;4.47;100.00;99583.22;5086057;28;20052;-89
2022/11/06 01:49:35;;;;;;;11.82;2.95;;;;;;;4.44;100.00;99570.34;5078802;28;20090;-89
2022/11/06 01:52:07;;;;;;;8.10;2.70;;;;;;;4.57;100.00;99573.41;5077508;28;20048;-88
2022/11/06 01:54:37;;;;;;;8.68;2.92;;;;;;;4.47;100.00;99548.69;5078176;28;20536;-89
2022/11/06 01:57:04;;;;;;;9.13;2.50;;;;;;;4.37;100.00;99563.66;5080882;28;20052;-88
2022/11/06 01:59:34;;;;;;;6.20;2.13;;;;;;;4.32;100.00;99568.13;5086690;28;20048;-88
2022/11/06 02:02:01;;;;;;;6.25;1.73;;;;;;;4.44;100.00;99565.16;5084865;28;20052;-87
2022/11/06 02:04:33;;;;;;;6.30;2.50;;;;;;;4.35;100.00;99550.72;5085445;28;20052;-87
2022/11/06 02:07:00;;;;;;;6.60;1.95;;;;;;;4.55;100.00;99565.69;5081312;28;20101;-89
2022/11/06 02:09:30;;;;;;;7.28;2.53;;;;;;;4.38;100.00;99524.72;5084265;28;20105;-88
2022/11/06 02:12:05;;;;;;;7.35;2.50;;;;;;;4.38;100.00;99531.66;5086457;28;20069;-88
2022/11/06 02:14:53;;;;;;;7.10;1.90;;;;;;;4.82;100.00;99567.44;5084616;28;20052;-88
2022/11/06 02:17:49;;;;;;;6.90;2.40;;;;;;;4.59;100.00;99537.91;5084766;28;20085;-88
2022/11/06 02:20:44;;;;;;;8.70;2.30;;;;;;;4.91;100.00;99574.91;5064845;28;20052;-89
2022/11/06 02:23:53;;;;;;;8.18;1.90;;;;;;;4.89;100.00;99558.56;5078321;28;20054;-89
2022/11/06 02:26:28;;;;;;;8.95;2.10;;;;;;;4.85;100.00;99555.22;5079598;28;20056;-89
2022/11/06 02:29:02;;;;;;;7.90;2.40;;;;;;;4.83;100.00;99551.81;5083523;28;20052;-89
2022/11/06 02:31:34;;;;;;;6.32;1.90;;;;;;;4.79;100.00;99520.84;5089415;28;20397;-89
2022/11/06 02:34:07;;;;;;;10.73;2.60;;;;;;;4.79;100.00;99510.50;5084677;28;20048;-89
2022/11/06 02:36:36;;;;;;;;;;;;;;;5.16;100.00;99545.56;5092969;28;20452;-89
2022/11/06 02:39:08;;;;;;;6.88;2.28;;;;;;;4.85;100.00;99516.31;5093057;28;19924;-88
2022/11/06 02:41:39;;;;;;;7.00;2.05;;;;;;;5.01;100.00;99552.97;5092934;28;20158;-89
2022/11/06 02:44:10;;;;;;;8.40;2.22;;;;;;;4.95;100.00;99524.63;5091787;28;20098;-89
2022/11/06 02:46:53;;;;;;;7.93;2.05;;;;;;;4.89;100.00;99528.28;5091831;28;20051;-89
2022/11/06 02:49:31;;;;;;;9.13;2.60;;;;;;;5.05;100.00;99544.19;5090603;28;20056;-88
2022/11/06 02:52:24;;;;;;;9.77;2.75;;;;;;;4.62;100.00;99508.44;5092584;28;20707;-90
2022/11/06 02:55:02;;;;;;;8.45;2.17;;;;;;;4.92;100.00;99545.47;5087281;28;20048;-88
2022/11/06 02:57:35;;;;;;;9.43;2.28;;;;;;;4.87;100.00;99527.50;5084913;28;20052;-89
2022/11/06 03:00:08;;;;;;;8.32;2.15;;;;;;;4.97;100.00;99535.78;5079475;28;20055;-88
2022/11/06 03:02:41;;;;;;;9.00;2.10;;;;;;;4.69;100.00;99479.69;5076693;28;20469;-89
2022/11/06 03:05:16;;;;;;;7.97;2.00;;;;;;;5.02;100.00;99520.91;5094507;28;20478;-88
2022/11/06 03:07:46;;;;;;;7.00;2.00;;;;;;;5.06;100.00;99522.50;5079646;28;20052;-89
2022/11/06 03:10:13;;;;;;;7.72;2.33;;;;;;;4.73;100.00;99477.84;5090901;28;20044;-90
2022/11/06 03:12:47;;;;;;;7.50;2.00;;;;;;;4.82;100.00;99467.13;5081830;28;20048;-90
2022/11/06 03:15:32;;;;;;;7.18;2.03;;;;;;;5.19;100.00;99509.97;5087395;28;20048;-90
2022/11/06 03:18:26;;;;;;;6.70;2.13;;;;;;;5.21;100.00;99508.16;5085746;28;20048;-89
2022/11/06 03:21:00;;;;;;;6.70;1.90;;;;;;;5.25;100.00;99486.38;5081372;28;20445;-89
2022/11/06 03:23:40;;;;;;;5.63;1.65;;;;;;;5.26;100.00;99469.94;5089061;28;20109;-90
2022/11/06 03:26:18;;;;;;;11.35;2.30;;;;;;;5.23;100.00;99446.66;5081273;28;20052;-90
2022/11/06 03:29:17;;;;;;;11.65;2.28;;;;;;;5.73;100.00;99460.44;5085982;28;20052;-88
2022/11/06 03:31:56;;;;;;;8.63;2.08;;;;;;;5.96;100.00;99463.00;5081364;28;20487;-88
2022/11/06 03:34:40;;;;;;;11.10;3.35;;;;;;;6.07;100.00;99452.19;5084414;28;20049;-88
2022/11/06 03:37:17;;;;;;;8.20;2.80;;;;;;;6.17;100.00;99427.53;5089407;28;20094;-88
2022/11/06 03:39:52;;;;;;;8.82;2.47;;;;;;;6.14;100.00;99439.81;5090047;28;20056;-89
2022/11/06 03:42:27;;;;;;;9.05;2.42;;;;;;;6.15;100.00;99429.34;5090981;28;20093;-89
2022/11/06 03:44:58;;;;;;;14.35;3.65;;;;;;;6.17;100.00;99429.31;5088756;28;20094;-88
2022/11/06 03:47:33;;;;;;;9.20;2.67;;;;;;;6.30;100.00;99432.25;5090972;28;20417;-89
2022/11/06 03:50:06;;;;;;;11.00;2.88;;;;;;;6.10;100.00;99410.50;5089983;28;20040;-89
2022/11/06 03:52:34;;;;;;;;;;;;;;;6.34;100.00;99434.66;5089664;28;20090;-88
2022/11/06 03:55:10;;;;;;;8.43;2.35;;;;;;;6.17;100.00;99408.50;5079233;28;19970;-89
2022/11/06 03:57:54;;;;;;;9.30;2.95;;;;;;;6.16;100.00;99415.47;5084257;28;20048;-88
2022/11/06 04:00:21;;;;;;;8.07;2.58;;;;;;;6.05;100.00;99397.69;5082515;28;20078;-89
2022/11/06 04:03:03;;;;;;;8.48;2.33;;;;;;;6.13;100.00;99415.59;5076474;28;20048;-89
2022/11/06 04:05:46;;;;;;;10.85;2.78;;;;;;;6.03;100.00;99412.50;5070619;28;20084;-89
2022/11/06 04:13:59;;;;;;;12.65;2.72;;;;;;;5.94;100.00;99419.78;5091572;28;20056;-88
2022/11/06 04:16:49;;;;;;;6.15;1.95;;;;;;;6.06;100.00;99429.72;5086735;28;20610;-89
2022/11/06 04:19:18;;;;;;;7.00;2.13;;;;;;;5.92;100.00;99432.00;5070752;28;20051;-90
2022/11/06 04:22:16;;;;;;;9.30;2.40;;;;;;;5.55;100.00;99391.88;5090559;28;20436;-88
2022/11/06 04:27:57;;;;;;;10.05;2.40;;;;;;;5.46;100.00;99359.31;5078318;28;20506;-89
2022/11/06 04:30:23;;;;;;;7.00;2.22;;;;;;;5.65;100.00;99416.59;5070224;28;20440;-89
2022/11/06 04:33:26;;;;;;;9.45;2.25;;;;;;;5.73;100.00;99432.69;5086289;28;20059;-89
2022/11/06 04:36:11;;;;;;;16.65;2.58;;;;;;;5.89;100.00;99422.56;5046485;28;20585;-88
2022/11/06 04:38:56;;;;;;;7.85;2.05;;;;;;;6.36;100.00;99422.44;5090380;28;20059;-89
2022/11/06 04:41:34;;;;;;;11.00;3.25;;;;;;;6.46;100.00;99428.09;5087286;28;20052;-89
2022/11/06 04:44:05;;;;;;;15.38;3.35;;;;;;;6.35;100.00;99399.94;5077668;28;20055;-88
2022/11/06 04:46:46;;;;;;;14.45;3.17;;;;;;;6.70;100.00;99408.03;5074447;28;20040;-87
2022/11/06 04:49:14;;;;;;;19.67;3.88;;;;;;;6.59;100.00;99372.06;5089028;28;20539;-89
2022/11/06 04:51:44;;;;;;;16.23;4.50;;;;;;;6.63;100.00;99378.81;5076143;28;20060;-89
2022/11/06 04:54:12;;;;;;;15.63;3.58;;;;;;;6.46;100.00;99358.75;5083412;28;20049;-89
2022/11/06 04:56:39;;;;;;;11.98;3.72;;;;;;;6.78;100.00;99384.25;5069701;28;20049;-89
2022/11/06 04:59:14;;;;;;;10.48;2.75;;;;;;;6.87;100.00;99394.28;5070881;28;20404;-88
2022/11/06 05:01:41;;;;;;;11.27;4.22;;;;;;;6.81;100.00;99366.75;5090169;28;20048;-87
2022/11/06 05:04:10;;;;;;;12.95;4.45;;;;;;;6.64;100.00;99348.47;5070968;28;20554;-90
2022/11/06 05:06:37;;;;;;;12.00;3.97;;;;;;;6.71;100.00;99375.91;5082750;28;20052;-89
2022/11/06 05:09:03;;;;;;;15.27;3.40;;;;;;;6.61;100.00;99361.59;5086563;28;20044;-89
2022/11/06 05:11:30;;;;;;;15.27;3.67;;;;;;;6.63;100.00;99365.81;5079242;28;20118;-87
2022/11/06 05:13:57;;;;;;;11.07;3.42;;;;;;;6.64;100.00;99359.72;5087509;28;20052;-88
2022/11/06 05:16:24;;;;;;;12.05;2.88;;;;;;;6.73;100.00;99368.88;5089000;28;20048;-88
2022/11/06 05:18:50;;;;;;;12.45;4.72;;;;;;;6.62;100.00;99371.06;5075182;28;20441;-88
2022/11/06 05:24:03;;;;;;;10.82;2.78;;;;;;;6.75;100.00;99384.41;5090405;28;20493;-88
2022/11/06 05:26:29;;;;;;;6.80;2.42;;;;;;;6.71;100.00;99364.63;5076693;28;20374;-88
2022/11/06 05:28:56;;;;;;;12.75;3.08;;;;;;;6.87;100.00;99394.28;5092168;28;20052;-88
2022/11/06 05:31:24;;;;;;;13.18;3.17;;;;;;;6.86;100.00;99387.38;5082919;28;20119;-88
2022/11/06 05:33:50;;;;;;;12.38;3.60;;;;;;;6.85;100.00;99359.66;5085218;28;20418;-88
2022/11/06 05:36:17;;;;;;;13.40;3.50;;;;;;;7.11;100.00;99374.13;5090345;28;20044;-88
2022/11/06 05:38:44;;;;;;;14.25;4.57;;;;;;;6.94;100.00;99341.06;5080601;28;20052;-88
2022/11/06 05:41:10;;;;;;;12.93;3.75;;;;;;;7.06;100.00;99364.84;5091817;28;20048;-88
2022/11/06 05:43:37;;;;;;;14.63;4.85;;;;;;;7.26;100.00;99385.63;5093200;28;20056;-88
2022/11/06 05:46:04;;;;;;;12.18;3.25;;;;;;;7.43;100.00;99384.00;5086144;28;20045;-89
2022/11/06 05:48:49;;;;;;;17.60;4.53;;;;;;;7.24;100.00;99348.38;5074589;28;20148;-89
2022/11/06 05:51:16;;;;;;;21.38;4.85;;;;;;;7.40;100.00;99369.34;5080027;28;20466;-90
2022/11/06 05:53:43;;;;;;;17.88;4.80;;;;;;;7.44;100.00;99367.44;5091052;28;20056;-89
2022/11/06 05:56:10;;;;;;;13.20;3.78;;;;;;;7.56;100.00;99372.06;5092942;28;20048;-88
2022/11/06 05:58:36;;;;;;;17.15;4.55;;;;;;;7.54;100.00;99363.50;5085236;28;20359;-88
2022/11/06 06:01:04;;;;;;;14.65;3.88;;;;;;;7.64;100.00;99371.72;5092237;28;20109;-88
2022/11/06 06:03:30;;;;;;;14.05;4.38;;;;;;;7.66;100.00;99351.66;5093260;28;20440;-88
2022/11/06 06:05:57;;;;;;;11.00;2.88;;;;;;;7.73;100.00;99351.28;5078978;28;20055;-89
2022/11/06 06:08:24;;;;;;;13.75;4.35;;;;;;;7.51;100.00;99308.97;5081176;28;20057;-89
2022/11/06 06:10:51;;;;;;;16.67;5.13;;;;;;;7.43;100.00;99292.84;5092037;28;20051;-89
2022/11/06 06:13:17;;;;;;;13.68;3.35;;;;;;;7.89;100.00;99350.56;5092790;28;20043;-89
2022/11/06 06:15:45;;;;;;;13.02;3.97;;;;;;;7.80;100.00;99313.59;5093860;28;20048;-88
2022/11/06 06:18:11;;;;;;;15.40;4.30;;;;;;;7.86;100.00;99322.91;5092947;28;20357;-88
2022/11/06 06:20:39;;;;;;;12.77;3.38;;;;;;;7.75;100.00;99307.75;5090742;28;20466;-89
2022/11/06 06:23:06;;;;;;;12.35;3.90;;;;;;;7.90;100.00;99331.41;5086897;28;20044;-89
2022/11/06 06:25:35;;;;;;;12.40;3.53;;;;;;;7.69;100.00;99295.03;5083473;28;20443;-88
2022/11/06 06:28:02;;;;;;;11.70;3.60;;;;;;;7.82;100.00;99321.34;5091176;28;20041;-89
2022/11/06 06:30:28;;;;;;;9.90;3.08;;;;;;;7.76;100.00;99311.22;5084375;28;20094;-89
2022/11/06 06:32:55;;;;;;;12.48;4.28;;;;;;;7.71;100.00;99314.03;5088167;28;20047;-90
2022/11/06 06:35:22;;;;;;;11.52;2.85;;;;;;;7.58;100.00;99312.97;5084552;28;20405;-89
2022/11/06 06:37:51;;;;;;;10.65;3.00;;;;;;;7.41;100.00;99296.34;5085334;28;20102;-89
2022/11/06 06:40:17;;;;;;;9.30;3.38;;;;;;;7.36;100.00;99287.09;5083654;28;20044;-89
2022/11/06 06:42:44;;;;;;;9.52;3.13;;;;;;;7.30;100.00;99269.16;5083138;28;20048;-87
2022/11/06 06:45:11;;;;;;;9.68;3.08;;;;;;;7.68;100.00;99326.38;5082838;28;20056;-88
2022/11/06 06:47:38;;;;;;;11.30;2.90;;;;;;;7.56;100.00;99301.75;5079892;28;20052;-88
2022/11/06 06:50:05;;;;;;;8.43;3.00;;;;;;;7.38;100.00;99275.69;5081832;28;20040;-88
2022/11/06 06:52:32;;;;;;;11.88;4.13;;;;;;;7.62;100.00;99298.88;5091237;28;20093;-88
2022/11/06 06:54:59;;;;;;;7.32;2.45;;;;;;;7.61;100.00;99273.72;5085048;28;20474;-89
2022/11/06 06:57:26;;;;;;;12.05;3.13;;;;;;;7.66;100.00;99283.94;5083554;28;20043;-88
2022/11/06 06:59:52;;;;;;;10.80;3.10;;;;;;;7.62;100.00;99292.81;5080754;28;20048;-88
2022/11/06 07:02:19;;;;;;;10.35;3.20;;;;;;;7.45;100.00;99263.19;5086113;28;20052;-88
2022/11/06 07:04:46;;;;;;;7.82;2.65;;;;;;;7.57;100.00;99283.44;5091481;28;20079;-89
2022/11/06 07:07:13;;;;;;;9.98;3.05;;;;;;;7.59;100.00;99272.97;5090363;28;20051;-89
2022/11/06 07:09:39;;;;;;;10.73;3.25;;;;;;;7.62;100.00;99277.19;5091161;28;20055;-86
2022/11/06 07:12:06;;;;;;;8.98;3.35;;;;;;;7.78;100.00;99281.56;5091005;28;20066;-89
2022/11/06 07:14:33;;;;;;;11.68;3.30;;;;;;;7.87;100.00;99285.47;5084710;28;20118;-89
2022/11/06 07:17:00;;;;;;;11.57;3.38;;;;;;;7.69;100.00;99239.50;5084863;28;20066;-89
2022/11/06 07:19:26;;;;;;;14.80;3.80;;;;;;;7.85;100.00;99261.25;5091943;28;20056;-89
2022/11/06 07:21:53;;;;;;;14.88;4.03;;;;;;;7.94;100.00;99278.19;5092199;28;20105;-89
2022/11/06 07:24:20;;;;;;;16.48;4.53;;;;;;;7.78;100.00;99245.06;5091086;28;20114;-89
2022/11/06 07:26:47;;;;;;;10.98;3.53;;;;;;;8.13;100.00;99289.38;5090996;28;20056;-89
2022/11/06 07:29:13;;;;;;;11.80;4.03;;;;;;;8.14;100.00;99266.75;5089976;28;20193;-88
2022/11/06 07:31:40;;;;;;;11.18;3.20;;;;;;;8.29;100.00;99268.59;5090885;28;20656;-88
2022/11/06 07:34:08;;;;;;;13.45;3.97;;;;;;;8.27;100.00;99273.03;5091163;28;20047;-88
2022/11/06 07:36:35;;;;;;;14.05;3.55;;;;;;;8.40;100.00;99257.59;5089684;28;20431;-88
2022/11/06 07:39:02;;;;;;;18.30;4.60;;;;;;;8.81;100.00;99280.69;5090715;28;20097;-87
2022/11/06 07:41:28;;;;;;;24.05;5.78;;;;;;;8.86;100.00;99252.56;5090552;28;20052;-87
2022/11/06 07:43:55;;;;;;;20.55;5.43;;;;;;;9.03;100.00;99251.66;5106160;28;20055;-85
2022/11/06 07:46:36;;;;;;;23.40;5.72;;;;;;;9.15;100.00;99233.63;5092489;28;20116;-88
2022/11/06 07:49:16;;;;;;;24.45;5.80;;;;;;;9.58;100.00;99271.25;5097335;28;20044;-87
2022/11/06 07:51:57;;;;;;;23.38;7.05;;;;;;;9.63;100.00;99276.19;5103826;28;20071;-87
2022/11/06 07:54:38;;;;;;;21.88;5.60;;;;;;;9.57;100.00;99245.19;5103436;28;20046;-88
2022/11/06 07:57:19;;;;;;;26.02;5.82;;;;;;;9.81;100.00;99261.22;5107535;28;20410;-89
2022/11/06 08:00:00;;;;;;;19.20;4.88;;;;;;;9.74;100.00;99238.97;5095108;28;20051;-88
2022/11/06 08:02:40;;;;;;;27.95;5.35;;;;;;;9.96;100.00;99252.50;5107030;28;20028;-89
2022/11/06 08:05:22;;;;;;;25.50;7.03;;;;;;;10.02;100.00;99260.00;5110100;28;20032;-88
2022/11/06 08:08:02;;;;;;;25.27;7.13;;;;;;;9.87;100.00;99226.91;5101812;28;20056;-88
2022/11/06 08:10:43;;;;;;;17.48;4.80;;;;;;;9.97;100.00;99217.59;5107666;28;20034;-87
2022/11/06 08:13:25;;;;;;;19.48;5.13;;;;;;;9.89;100.00;99194.47;5108774;28;20079;-89
2022/11/06 08:16:11;;;;;;;24.23;5.15;;;;;;;10.08;100.00;99214.31;5103210;28;20020;-88
2022/11/06 08:18:52;;;;;;;34.65;6.68;;;;;;;10.14;100.00;99234.88;5103296;28;20028;-88
2022/11/06 08:21:33;;;;;;;25.25;5.53;;;;;;;10.25;100.00;99229.00;5107535;28;20047;-88
2022/11/06 08:24:14;;;;;;;16.25;4.32;;;;;;;10.27;100.00;99221.91;5110249;28;20043;-90
2022/11/06 08:26:54;;;;;;;13.98;4.15;;;;;;;10.35;100.00;99231.94;5109276;28;20039;-86
2022/11/06 08:29:35;;;;;;;20.55;4.68;;;;;;;10.33;100.00;99228.56;5099954;28;20067;-88
2022/11/06 08:32:16;;;;;;;21.55;6.07;;;;;;;10.17;100.00;99218.16;5108032;28;20537;-87
2022/11/06 08:34:56;;;;;;;25.48;5.68;;;;;;;10.30;100.00;99203.41;5098179;28;20106;-89
2022/11/06 08:37:37;;;;;;;21.85;5.03;;;;;;;10.49;100.00;99228.47;5091456;28;20045;-89
2022/11/06 08:40:16;;;;;;;19.05;5.53;;;;;;;10.22;100.00;99190.78;5102874;28;20127;-89
2022/11/06 08:43:01;;;;;;;21.15;6.50;;;;;;;10.49;100.00;99204.94;5100057;28;20549;-88
2022/11/06 08:45:28;;;;;;;16.52;4.97;;;;;;;10.40;100.00;99175.78;5104753;28;20257;-88
2022/11/06 08:48:03;;;;;;;21.20;5.03;;;;;;;10.59;100.00;99191.19;5099802;28;20096;-88
2022/11/06 08:50:32;;;;;;;20.05;5.13;;;;;;;10.89;100.00;99207.66;5099195;28;20046;-87
2022/11/06 08:53:09;;;;;;;17.15;4.65;;;;;;;10.67;100.00;99167.13;5100934;28;20048;-89
2022/11/06 08:55:38;;;;;;;18.77;4.18;;;;;;;10.97;100.00;99202.78;5102579;28;20428;-88
2022/11/06 08:58:06;;;;;;;18.60;4.70;;;;;;;10.82;100.00;99183.66;5104682;28;20127;-88
2022/11/06 09:00:35;;;;;;;21.45;6.53;;;;;;;10.72;100.00;99172.91;5107883;28;20051;-89
2022/11/06 09:03:19;;;;;;;22.58;5.10;;;;;;;10.69;100.00;99151.34;5103094;28;20048;-88
2022/11/06 09:05:51;;;;;;;29.08;5.60;;;;;;;10.82;100.00;99179.25;5109287;28;20055;-85
2022/11/06 09:08:32;;;;;;;18.33;5.07;;;;;;;10.60;100.00;99150.13;5099726;28;20087;-88
2022/11/06 09:11:12;;;;;;;29.45;6.68;;;;;;;10.45;100.00;99158.00;5103951;28;20043;-85
2022/11/06 09:13:42;;;;;;;16.88;4.90;;;;;;;10.88;100.00;99185.88;5099815;28;20050;-88
2022/11/06 09:16:11;;;;;;;15.88;4.97;;;;;;;10.90;100.00;99172.69;5108787;28;20044;-86
2022/11/06 09:18:56;;;;;;;19.40;4.65;;;;;;;11.12;100.00;99182.63;5105525;28;20056;-88
2022/11/06 09:21:37;;;;;;;22.38;5.13;;;;;;;10.95;100.00;99154.91;5115421;28;20112;-89
2022/11/06 09:24:08;;;;;;;23.70;6.13;;;;;;;11.24;100.00;99163.47;5110374;28;20134;-89
2022/11/06 09:26:49;;;;;;;35.70;6.45;;;;;;;11.19;100.00;99160.31;5111648;28;20397;-89
2022/11/06 09:29:30;;;;;;;21.50;5.38;;;;;;;11.37;100.00;99153.06;5111755;28;20035;-88
2022/11/06 09:32:10;;;;;;;23.42;5.30;;;;;;;11.14;100.00;99120.53;5114668;28;20132;-87
2022/11/06 09:34:51;;;;;;;33.30;6.78;;;;;;;11.26;100.00;99159.00;5100966;28;20050;-88
2022/11/06 09:37:31;;;;;;;24.80;5.65;;;;;;;11.30;100.00;99142.13;5113274;28;20059;-88
2022/11/06 09:40:34;;;;;;;25.90;5.35;;;;;;;11.35;100.00;99133.94;5112731;28;20032;-88
2022/11/06 09:43:33;;;;;;;26.50;5.20;;;;;;;11.42;100.00;99137.88;5102311;28;20040;-86
2022/11/06 09:46:17;;;;;;;24.33;5.95;;;;;;;11.37;100.00;99142.59;5111259;28;20170;-88
2022/11/06 09:48:57;;;;;;;;;;;;;;;11.75;100.00;99136.53;5107754;28;20046;-88
2022/11/06 09:51:40;;;;;;;22.45;5.43;;;;;;;11.50;100.00;99125.09;5106474;28;19928;-86
2022/11/06 09:54:27;;;;;;;20.75;6.05;;;;;;;11.37;100.00;99105.91;5102680;28;20058;-85
2022/11/06 09:57:17;;;;;;;22.73;6.03;;;;;;;11.34;100.00;99083.34;5101255;28;20032;-89
2022/11/06 10:00:00;;;;;;;23.25;5.20;;;;;;;11.68;100.00;99114.31;5117882;28;20052;-87
2022/11/06 10:02:51;;;;;;;20.38;4.90;;;;;;;11.42;100.00;99061.03;5104975;28;20055;-87
2022/11/06 10:05:40;;;;;;;21.15;5.47;;;;;;;11.39;100.00;99109.25;5106436;28;20039;-88
2022/11/06 10:08:14;;;;;;;24.45;5.55;;;;;;;11.29;100.00;99082.81;5110260;28;20028;-87
2022/11/06 10:10:50;;;;;;;20.23;4.57;;;;;;;11.45;100.00;99077.38;5111886;28;20051;-87
2022/11/06 10:13:33;;;;;;;21.27;5.25;;;;;;;11.35;100.00;99071.94;5109949;28;20177;-88
2022/11/06 10:16:19;;;;;;;21.33;5.47;;;;;;;11.55;100.00;99106.44;5107249;28;20040;-88
2022/11/06 10:19:15;;;;;;;26.98;5.88;;;;;;;11.45;100.00;99106.19;5108585;28;20062;-88
2022/11/06 10:22:04;;;;;;;23.15;5.32;;;;;;;11.27;100.00;99083.88;5088426;28;20100;-85
2022/11/06 10:24:46;;;;;;;29.25;7.22;;;;;;;11.45;100.00;99082.63;5106498;28;20040;-88
2022/11/06 10:27:17;;;;;;;26.73;5.18;;;;;;;11.23;100.00;99061.44;5102545;28;20044;-89
2022/11/06 10:29:59;;;;;;;21.17;5.90;;;;;;;11.39;100.00;99073.38;5109246;28;20059;-87
2022/11/06 10:33:11;;;;;;;24.58;5.65;;;;;;;11.30;100.00;99079.25;5107975;28;20056;-87
2022/11/06 10:35:45;;;;;;;22.00;4.55;;;;;;;11.46;100.00;99079.06;5106972;28;20074;-88
2022/11/06 10:38:35;;;;;;;30.48;6.93;;;;;;;11.03;100.00;99055.75;5110531;28;20048;-88
2022/11/06 10:41:02;;;;;;;26.20;6.40;;;;;;;11.32;100.00;99066.06;5106230;28;20489;-87
2022/11/06 10:43:34;;;;;;;19.98;6.25;;;;;;;10.93;100.00;99036.34;5109931;28;20044;-88
2022/11/06 10:46:01;;;;;;;24.80;5.20;;;;;;;11.34;100.00;99072.84;5108208;28;20044;-87
2022/11/06 10:48:32;;;;;;;24.02;5.28;;;;;;;11.27;100.00;99068.97;5107925;28;20056;-88
2022/11/06 10:51:23;;;;;;;30.08;6.53;;;;;;;11.39;100.00;99065.53;5106433;28;20359;-88
2022/11/06 10:53:56;;;;;;;29.92;7.15;;;;;;;11.33;100.00;99063.34;5097586;28;20434;-88
2022/11/06 10:56:55;;;;;;;32.50;8.45;;;;;;;11.13;100.00;99020.13;5103608;28;20111;-85
2022/11/06 10:59:22;;;;;;;32.65;8.50;;;;;;;11.14;100.00;99026.22;5104109;28;20052;-85
2022/11/06 11:01:49;;;;;;;19.67;7.00;;;;;;;11.31;100.00;99019.81;5103077;28;20462;-85
2022/11/06 11:04:17;;;;;;;23.42;7.72;;;;;;;11.58;100.00;99045.94;5105810;28;20545;-86
2022/11/06 11:06:44;;;;;;;24.63;8.60;;;;;;;11.34;100.00;99028.31;5102578;28;20040;-86
2022/11/06 11:09:32;;;;;;;36.13;9.25;;;;;;;11.15;100.00;99028.72;5103750;28;20047;-86
2022/11/06 11:11:59;;;;;;;33.63;10.38;;;;;;;11.03;100.00;99040.03;5099771;28;20064;-87
2022/11/06 11:14:30;;;;;;;34.70;9.75;;;;;;;10.87;100.00;99002.69;5099632;28;20048;-87
2022/11/06 11:17:19;;;;;;;29.45;9.85;;;;;;;10.93;100.00;98997.06;5092739;28;20043;-88
2022/11/06 11:19:46;;;;;;;34.40;10.40;;;;;;;10.98;100.00;99015.94;5093630;28;20082;-87
2022/11/06 11:22:20;;;;;;;31.35;10.57;;;;;;;10.72;100.00;99018.47;5100661;28;20052;-87
2022/11/06 11:25:06;;;;;;;30.17;10.90;;;;;;;10.86;100.00;99027.22;5107969;28;20056;-85
2022/11/06 11:27:47;;;;;;;30.42;10.27;;;;;;;10.60;100.00;98985.25;5105083;28;20044;-87
2022/11/06 11:30:28;;;;;;;24.83;9.02;;;;;;;10.83;100.00;98963.63;5087822;28;20041;-88
2022/11/06 11:32:58;;;;;;;;;;;;;;;11.36;100.00;99023.81;5105482;28;20051;-86
2022/11/06 11:35:28;;;;;;;27.05;10.43;;;;;;;11.32;100.00;99013.66;5091232;28;19967;-88
2022/11/06 11:38:24;;;;;;;29.75;10.75;;;;;;;11.39;100.00;98999.19;5077531;28;20064;-85
2022/11/06 11:41:05;;;;;;;34.20;11.52;;;;;;;11.21;100.00;98978.53;5075665;28;20047;-87
2022/11/06 11:43:32;;;;;;;33.33;10.13;;;;;;;11.44;100.00;98988.38;5096319;28;20070;-87
2022/11/06 11:46:08;;;;;;;28.15;9.18;;;;;;;11.47;100.00;98990.78;5096447;28;20513;-86
2022/11/06 11:48:44;;;;;;;36.42;10.85;;;;;;;10.99;100.00;98890.09;5081452;28;20051;-86
2022/11/06 11:51:27;;;;;;;35.95;13.02;;;;;;;11.25;100.00;98947.72;5086842;28;20056;-86
2022/11/06 11:53:58;;;;;;;33.67;13.65;;;;;;;11.59;100.00;98997.81;5097522;28;20044;-87
2022/11/06 11:56:27;;;;;;;34.17;12.45;;;;;;;11.54;100.00;98969.31;5089060;28;20059;-86
2022/11/06 11:59:28;;;;;;;35.42;13.43;;;;;;;11.45;100.00;98963.84;5082811;28;20496;-87
2022/11/06 12:02:01;;;;;;;30.52;10.88;;;;;;;11.34;100.00;98933.16;5093059;28;20051;-87
2022/11/06 12:04:38;;;;;;;35.60;12.57;;;;;;;11.44;100.00;98952.53;5097583;28;20044;-87
2022/11/06 12:07:13;;;;;;;28.15;10.57;;;;;;;11.25;100.00;98926.78;5096480;28;20055;-87